Bill, Wyoming
Current Conditions -  °F | °C
As of 9:53 AM on Friday 19 Dec 2014 (Local Time) from KDGW Reporting Station
Clear Clear  
Wind Chill: 32°   Ceiling: Unl
Heat Index: 32°   Visibility: 10mi
Dew Point: 19°   Wind: 3mph
Humidity: 59%   Direction: 330°NNW
Pressure: 30.04"   Gusts: NA
Location:  42.76°N, 105.39°W
Report Text: KDGW 191653Z AUTO 33003KT 10SM CLR 00/M07 A3004 RMK AO2 SLP214 T00001072
Loading
Personal Weather Stations






























Interactive Weather Map New forecast layout! Learn more

10-Day Weather Forecast

Advertisements
Track Severe Weather on mobile